createdAt,value
2023-04-09T00:03:22.567Z,11.30
2023-04-09T00:08:27.870Z,11.28
2023-04-09T00:13:39.255Z,11.30
2023-04-09T00:18:43.688Z,11.22
2023-04-09T00:23:48.761Z,11.19
2023-04-09T00:28:52.767Z,11.16
2023-04-09T00:33:57.089Z,11.23
2023-04-09T00:39:02.231Z,11.18
2023-04-09T00:44:06.015Z,11.19
2023-04-09T00:49:09.780Z,11.06
2023-04-09T00:54:16.095Z,11.12
2023-04-09T00:59:20.489Z,11.10
2023-04-09T01:04:25.449Z,11.00
2023-04-09T01:09:36.576Z,11.05
2023-04-09T01:14:46.960Z,11.11
2023-04-09T01:19:59.662Z,11.10
2023-04-09T01:25:17.069Z,11.06
2023-04-09T01:30:23.673Z,11.05
2023-04-09T01:35:29.730Z,11.06
2023-04-09T01:40:33.926Z,11.07
2023-04-09T01:45:39.915Z,11.05
2023-04-09T01:50:44.867Z,11.06
2023-04-09T01:55:48.725Z,11.04
2023-04-09T02:00:58.413Z,10.96
2023-04-09T02:06:07.337Z,11.00
2023-04-09T02:11:12.425Z,10.91
2023-04-09T02:16:18.687Z,10.91
2023-04-09T02:21:23.349Z,10.89
2023-04-09T02:26:27.126Z,10.86
2023-04-09T02:31:32.293Z,10.88
2023-04-09T02:36:36.194Z,10.87
2023-04-09T02:41:40.013Z,10.85
2023-04-09T02:46:48.323Z,10.82
2023-04-09T02:51:51.828Z,10.83
2023-04-09T02:56:56.302Z,10.75
2023-04-09T03:02:01.489Z,10.72
2023-04-09T03:07:05.467Z,10.74
2023-04-09T03:12:09.341Z,10.75
2023-04-09T03:17:14.471Z,10.69
2023-04-09T03:22:18.192Z,10.68
2023-04-09T03:27:22.605Z,10.71
2023-04-09T03:32:28.810Z,10.66
2023-04-09T03:37:33.061Z,10.67
2023-04-09T03:42:37.417Z,10.67
2023-04-09T03:47:45.358Z,10.65
2023-04-09T03:52:49.513Z,10.61
2023-04-09T03:57:53.260Z,10.59
2023-04-09T04:02:59.781Z,10.60
2023-04-09T04:08:07.782Z,10.62
2023-04-09T04:13:11.782Z,10.61
2023-04-09T04:18:18.529Z,10.59
2023-04-09T04:23:23.556Z,10.54
2023-04-09T04:28:28.131Z,10.53
2023-04-09T04:33:33.514Z,10.48
2023-04-09T04:38:38.059Z,10.50
2023-04-09T04:43:42.436Z,10.50
2023-04-09T04:48:51.289Z,10.53
2023-04-09T04:53:55.912Z,10.48
2023-04-09T04:59:01.393Z,10.49
2023-04-09T05:04:09.283Z,10.45
2023-04-09T05:09:13.412Z,10.35
2023-04-09T05:14:18.513Z,10.31
2023-04-09T05:19:23.648Z,10.32
2023-04-09T05:24:30.122Z,10.36
2023-04-09T05:29:33.864Z,10.17
2023-04-09T05:34:40.353Z,10.20
2023-04-09T05:39:44.161Z,10.22
2023-04-09T05:44:47.983Z,10.23
2023-04-09T05:49:53.621Z,10.22
2023-04-09T05:54:57.500Z,10.11
2023-04-09T06:00:02.036Z,10.13
2023-04-09T06:05:08.204Z,10.17
2023-04-09T06:10:12.249Z,10.16
2023-04-09T06:15:16.423Z,10.13
2023-04-09T06:20:21.706Z,10.17
2023-04-09T06:25:25.646Z,10.11
2023-04-09T06:30:29.483Z,10.11
2023-04-09T06:35:34.568Z,10.03
2023-04-09T06:40:38.887Z,9.70
2023-04-09T06:45:42.598Z,9.91
2023-04-09T06:50:47.772Z,10.00
2023-04-09T06:55:52.029Z,10.04
2023-04-09T07:00:55.864Z,10.02
2023-04-09T07:06:00.943Z,10.05
2023-04-09T07:11:04.765Z,10.10
2023-04-09T07:16:08.609Z,10.07
2023-04-09T07:21:14.182Z,10.15
2023-04-09T07:26:17.884Z,10.32
2023-04-09T07:31:21.596Z,10.45
2023-04-09T07:36:27.990Z,10.52
2023-04-09T07:41:31.738Z,10.66
2023-04-09T07:46:35.445Z,10.77
2023-04-09T07:51:40.560Z,10.89
2023-04-09T07:56:44.324Z,10.97
2023-04-09T08:01:48.263Z,11.11
2023-04-09T08:06:53.964Z,11.22
2023-04-09T08:11:57.746Z,11.34
2023-04-09T08:17:01.765Z,11.31
2023-04-09T08:22:06.817Z,11.49
2023-04-09T08:27:10.544Z,11.72
2023-04-09T08:32:14.363Z,11.91
2023-04-09T08:37:19.449Z,12.24
2023-04-09T08:42:24.089Z,12.38
2023-04-09T08:47:28.531Z,12.30
2023-04-09T08:52:35.722Z,12.44
2023-04-09T08:57:39.934Z,12.56
2023-04-09T09:03:05.371Z,12.77
2023-04-09T09:08:11.864Z,13.12
2023-04-09T09:13:20.422Z,13.27
2023-04-09T09:18:40.404Z,13.54
2023-04-09T09:23:48.337Z,13.64
2023-04-09T09:28:53.048Z,13.78
2023-04-09T09:33:57.015Z,13.99
2023-04-09T09:39:05.344Z,14.22
2023-04-09T09:44:12.810Z,14.44
2023-04-09T09:49:16.576Z,14.95
2023-04-09T09:54:24.607Z,15.02
2023-04-09T09:59:34.626Z,15.68
2023-04-09T10:04:38.591Z,15.64
2023-04-09T10:09:49.241Z,15.99
2023-04-09T10:14:54.150Z,16.55
2023-04-09T10:20:02.815Z,17.06
2023-04-09T10:25:08.930Z,16.71
2023-04-09T10:30:33.009Z,17.50
2023-04-09T10:35:36.830Z,18.15
2023-04-09T10:40:49.489Z,18.90
2023-04-09T10:45:54.465Z,19.14
2023-04-09T10:50:58.215Z,18.60
2023-04-09T10:56:16.964Z,19.44
2023-04-09T11:01:24.020Z,18.51
2023-04-09T11:06:27.972Z,19.43
2023-04-09T11:11:34.860Z,19.59
2023-04-09T11:16:38.618Z,18.65
2023-04-09T11:21:46.079Z,18.63
2023-04-09T11:26:51.333Z,17.96
2023-04-09T11:31:55.207Z,17.39
2023-04-09T11:36:59.841Z,18.61
2023-04-09T11:42:04.961Z,18.10
2023-04-09T11:47:10.300Z,18.32
2023-04-09T11:52:16.497Z,20.08
2023-04-09T11:57:21.676Z,19.61
2023-04-09T12:02:25.705Z,19.88
2023-04-09T12:07:33.604Z,20.63
2023-04-09T12:12:46.499Z,20.72
2023-04-09T12:17:51.569Z,19.71
2023-04-09T12:22:55.553Z,21.52
2023-04-09T12:28:00.819Z,19.78
2023-04-09T12:33:05.954Z,19.73
2023-04-09T12:38:10.653Z,21.14
2023-04-09T12:43:15.717Z,22.54
2023-04-09T12:48:19.564Z,23.47
2023-04-09T12:53:23.238Z,24.13
2023-04-09T12:58:28.312Z,22.88
2023-04-09T13:03:32.346Z,22.99
2023-04-09T13:08:36.424Z,22.14
2023-04-09T13:13:42.695Z,21.80
2023-04-09T13:18:46.537Z,22.15
2023-04-09T13:23:50.208Z,23.50
2023-04-09T13:28:55.324Z,22.72
2023-04-09T13:33:58.992Z,22.10
2023-04-09T13:39:05.090Z,21.64
2023-04-09T13:44:10.207Z,21.63
2023-04-09T13:49:14.008Z,20.56
2023-04-09T13:54:17.800Z,20.38
2023-04-09T13:59:22.834Z,19.99
2023-04-09T14:04:26.696Z,20.35
2023-04-09T14:09:30.598Z,19.98
2023-04-09T14:14:35.649Z,21.94
2023-04-09T14:19:39.587Z,21.10
2023-04-09T14:24:43.247Z,21.49
2023-04-09T14:29:48.275Z,20.59
2023-04-09T14:34:51.990Z,21.33
2023-04-09T14:39:55.755Z,23.08
2023-04-09T14:45:00.991Z,24.59
2023-04-09T14:50:05.240Z,25.50
2023-04-09T14:55:12.445Z,26.23
2023-04-09T15:00:18.273Z,26.60
2023-04-09T15:05:22.108Z,25.73
2023-04-09T15:10:26.006Z,23.93
2023-04-09T15:15:31.175Z,23.03
2023-04-09T15:20:37.689Z,22.02
2023-04-09T15:25:41.460Z,21.08
2023-04-09T15:30:46.704Z,20.84
2023-04-09T15:35:50.451Z,21.02
2023-04-09T15:40:56.356Z,20.48
2023-04-09T15:46:08.768Z,20.17
2023-04-09T15:51:12.790Z,20.64
2023-04-09T15:56:16.841Z,20.52
2023-04-09T16:01:22.003Z,20.56
2023-04-09T16:06:25.885Z,20.41
2023-04-09T16:11:29.615Z,20.40
2023-04-09T16:16:34.720Z,20.82
2023-04-09T16:21:38.772Z,20.55
2023-04-09T16:26:43.701Z,21.33
2023-04-09T16:31:48.845Z,21.05
2023-04-09T16:36:52.652Z,21.40
2023-04-09T16:41:58.297Z,21.55
2023-04-09T16:47:03.713Z,20.80
2023-04-09T16:52:07.576Z,19.74
2023-04-09T16:57:11.468Z,19.28
2023-04-09T17:02:16.852Z,19.14
2023-04-09T17:07:20.674Z,18.94
2023-04-09T17:12:24.679Z,18.40
2023-04-09T17:17:29.899Z,17.88
2023-04-09T17:22:35.083Z,17.71
2023-04-09T17:27:38.827Z,17.60
2023-04-09T17:32:44.277Z,17.11
2023-04-09T17:37:48.072Z,17.01
2023-04-09T17:42:51.797Z,17.18
2023-04-09T17:47:57.165Z,16.99
2023-04-09T17:53:00.965Z,16.80
2023-04-09T17:58:04.660Z,16.55
2023-04-09T18:03:10.038Z,16.56
2023-04-09T18:08:13.970Z,16.32
2023-04-09T18:13:17.704Z,16.13
2023-04-09T18:18:22.793Z,16.11
2023-04-09T18:23:26.999Z,15.97
2023-04-09T18:28:30.756Z,15.73
2023-04-09T18:33:35.811Z,15.67
2023-04-09T18:38:39.574Z,15.56
2023-04-09T18:43:43.966Z,15.57
2023-04-09T18:48:49.117Z,15.45
2023-04-09T18:53:54.743Z,15.31
2023-04-09T18:58:58.420Z,15.28
2023-04-09T19:04:03.665Z,15.10
2023-04-09T19:09:07.449Z,15.00
2023-04-09T19:14:11.129Z,14.88
2023-04-09T19:19:16.357Z,14.83
2023-04-09T19:24:20.113Z,14.70
2023-04-09T19:29:23.781Z,14.64
2023-04-09T19:34:28.841Z,14.46
2023-04-09T19:39:32.588Z,14.45
2023-04-09T19:44:36.356Z,14.24
2023-04-09T19:49:41.684Z,14.22
2023-04-09T19:54:46.388Z,14.17
2023-04-09T19:59:52.160Z,14.14
2023-04-09T20:04:57.417Z,13.90
2023-04-09T20:10:01.312Z,13.93
2023-04-09T20:15:07.418Z,13.74
2023-04-09T20:20:13.928Z,13.67
2023-04-09T20:25:17.793Z,13.61
2023-04-09T20:30:22.622Z,13.58
2023-04-09T20:35:27.897Z,13.49
2023-04-09T20:40:32.458Z,13.54
2023-04-09T20:45:36.528Z,13.51
2023-04-09T20:50:42.118Z,13.39
2023-04-09T20:55:46.360Z,13.34
2023-04-09T21:00:50.117Z,13.28
2023-04-09T21:05:55.551Z,13.18
2023-04-09T21:10:59.512Z,13.16
2023-04-09T21:16:03.604Z,13.11
2023-04-09T21:21:09.219Z,12.95
2023-04-09T21:26:14.263Z,12.95
2023-04-09T21:31:18.118Z,12.83
2023-04-09T21:36:23.270Z,12.83
2023-04-09T21:41:27.107Z,12.76
2023-04-09T21:46:30.931Z,12.64
2023-04-09T21:51:36.029Z,12.60
2023-04-09T21:56:40.183Z,12.38
2023-04-09T22:01:43.965Z,12.29
2023-04-09T22:06:49.336Z,12.32
2023-04-09T22:11:53.543Z,12.19
2023-04-09T22:16:58.325Z,12.08
2023-04-09T22:22:03.703Z,12.15
2023-04-09T22:27:07.518Z,11.96
2023-04-09T22:32:11.517Z,11.90
2023-04-09T22:37:17.084Z,11.82
2023-04-09T22:42:20.813Z,11.75
2023-04-09T22:47:24.617Z,11.72
2023-04-09T22:52:29.647Z,11.53
2023-04-09T22:57:33.455Z,11.46
2023-04-09T23:02:37.416Z,11.52
2023-04-09T23:07:42.938Z,11.44
2023-04-09T23:12:46.864Z,11.38
2023-04-09T23:17:51.904Z,11.37
2023-04-09T23:22:56.987Z,11.26
2023-04-09T23:28:00.885Z,11.12
2023-04-09T23:33:04.806Z,11.14
2023-04-09T23:38:09.913Z,10.96
2023-04-09T23:43:13.669Z,10.96
2023-04-09T23:48:17.648Z,10.84
2023-04-09T23:53:22.763Z,10.80
2023-04-09T23:58:26.429Z,10.73
